createdAt,value
2022-10-06T00:01:06.165Z,14.33
2022-10-06T00:03:10.995Z,14.33
2022-10-06T00:05:16.066Z,14.31
2022-10-06T00:07:20.825Z,14.29
2022-10-06T00:09:25.684Z,14.27
2022-10-06T00:11:30.552Z,14.21
2022-10-06T00:13:36.182Z,14.18
2022-10-06T00:15:41.062Z,14.15
2022-10-06T00:17:45.958Z,14.12
2022-10-06T00:19:50.614Z,14.09
2022-10-06T00:21:55.433Z,14.04
2022-10-06T00:24:00.208Z,13.98
2022-10-06T00:26:05.197Z,13.94
2022-10-06T00:28:10.438Z,13.92
2022-10-06T00:30:17.886Z,13.89
2022-10-06T00:32:22.737Z,13.88
2022-10-06T00:34:27.734Z,13.86
2022-10-06T00:36:32.800Z,13.83
2022-10-06T00:38:37.996Z,13.79
2022-10-06T00:40:47.864Z,13.78
2022-10-06T00:42:55.623Z,13.74
2022-10-06T00:45:03.704Z,13.71
2022-10-06T00:47:08.442Z,13.69
2022-10-06T00:49:18.077Z,13.66
2022-10-06T00:51:23.718Z,13.66
2022-10-06T00:53:30.215Z,13.69
2022-10-06T00:55:35.296Z,13.73
2022-10-06T00:57:41.747Z,13.74
2022-10-06T00:59:47.201Z,13.72
2022-10-06T01:01:59.982Z,13.72
2022-10-06T01:04:11.379Z,13.70
2022-10-06T01:06:16.402Z,13.70
2022-10-06T01:08:23.827Z,13.71
2022-10-06T01:10:28.943Z,13.71
2022-10-06T01:12:35.295Z,13.69
2022-10-06T01:14:41.497Z,13.69
2022-10-06T01:16:51.483Z,13.69
2022-10-06T01:18:57.971Z,13.68
2022-10-06T01:21:09.939Z,13.68
2022-10-06T01:23:17.075Z,13.68
2022-10-06T01:25:22.952Z,13.68
2022-10-06T01:27:31.461Z,13.63
2022-10-06T01:29:37.408Z,13.56
2022-10-06T01:31:42.588Z,13.49
2022-10-06T01:33:53.091Z,13.43
2022-10-06T01:35:58.281Z,13.37
2022-10-06T01:38:02.982Z,13.32
2022-10-06T01:40:10.009Z,13.30
2022-10-06T01:42:15.319Z,13.28
2022-10-06T01:44:20.090Z,13.25
2022-10-06T01:46:24.838Z,13.22
2022-10-06T01:48:30.428Z,13.18
2022-10-06T01:50:36.539Z,13.16
2022-10-06T01:52:41.444Z,13.11
2022-10-06T01:54:47.077Z,13.11
2022-10-06T01:56:53.035Z,13.07
2022-10-06T01:58:58.743Z,13.05
2022-10-06T02:01:08.068Z,13.03
2022-10-06T02:03:13.415Z,13.02
2022-10-06T02:05:20.315Z,13.03
2022-10-06T02:07:28.296Z,13.06
2022-10-06T02:09:33.117Z,13.08
2022-10-06T02:11:42.049Z,13.09
2022-10-06T02:13:46.968Z,13.08
2022-10-06T02:15:54.884Z,13.05
2022-10-06T02:18:00.002Z,13.02
2022-10-06T02:20:06.052Z,12.97
2022-10-06T02:22:10.985Z,12.95
2022-10-06T02:24:15.813Z,12.97
2022-10-06T02:26:21.147Z,12.96
2022-10-06T02:28:26.628Z,12.97
2022-10-06T02:30:32.131Z,12.97
2022-10-06T02:32:39.429Z,12.95
2022-10-06T02:34:44.773Z,12.99
2022-10-06T02:36:49.681Z,13.04
2022-10-06T02:38:54.492Z,13.04
2022-10-06T02:41:00.185Z,13.00
2022-10-06T02:43:05.045Z,12.97
2022-10-06T02:45:11.111Z,12.97
2022-10-06T02:47:16.714Z,12.95
2022-10-06T02:49:21.610Z,12.94
2022-10-06T02:51:26.606Z,12.94
2022-10-06T02:53:31.979Z,12.92
2022-10-06T02:55:37.069Z,12.93
2022-10-06T02:57:41.976Z,12.92
2022-10-06T02:59:47.347Z,12.89
2022-10-06T03:01:52.667Z,12.87
2022-10-06T03:04:00.686Z,12.86
2022-10-06T03:06:08.260Z,12.85
2022-10-06T03:08:14.196Z,12.86
2022-10-06T03:10:19.015Z,12.85
2022-10-06T03:12:24.019Z,12.86
2022-10-06T03:14:29.866Z,12.87
2022-10-06T03:16:37.053Z,12.84
2022-10-06T03:18:43.015Z,12.81
2022-10-06T03:20:47.854Z,12.81
2022-10-06T03:22:54.905Z,12.80
2022-10-06T03:24:59.729Z,12.77
2022-10-06T03:27:07.534Z,12.76
2022-10-06T03:29:12.937Z,12.72
2022-10-06T03:31:20.899Z,12.63
2022-10-06T03:33:25.870Z,12.57
2022-10-06T03:35:30.700Z,12.56
2022-10-06T03:37:36.367Z,12.55
2022-10-06T03:39:41.149Z,12.56
2022-10-06T03:41:46.134Z,12.57
2022-10-06T03:43:53.162Z,12.57
2022-10-06T03:45:59.361Z,12.57
2022-10-06T03:48:04.186Z,12.55
2022-10-06T03:50:10.911Z,12.54
2022-10-06T03:52:16.035Z,12.53
2022-10-06T03:54:21.126Z,12.52
2022-10-06T03:56:29.059Z,12.50
2022-10-06T03:58:35.739Z,12.48
2022-10-06T04:00:40.518Z,12.48
2022-10-06T04:02:45.291Z,12.46
2022-10-06T04:04:50.273Z,12.44
2022-10-06T04:06:55.407Z,12.44
2022-10-06T04:09:00.749Z,12.44
2022-10-06T04:11:10.721Z,12.44
2022-10-06T04:13:17.519Z,12.44
2022-10-06T04:15:22.397Z,12.43
2022-10-06T04:17:27.336Z,12.43
2022-10-06T04:19:32.178Z,12.43
2022-10-06T04:21:39.729Z,12.42
2022-10-06T04:23:47.030Z,12.38
2022-10-06T04:25:57.819Z,12.34
2022-10-06T04:28:02.651Z,12.29
2022-10-06T04:30:09.217Z,12.26
2022-10-06T04:32:14.214Z,12.24
2022-10-06T04:34:18.911Z,12.22
2022-10-06T04:36:25.920Z,12.19
2022-10-06T04:38:33.905Z,12.15
2022-10-06T04:40:38.613Z,12.11
2022-10-06T04:42:43.470Z,12.11
2022-10-06T04:44:51.329Z,12.07
2022-10-06T04:46:56.208Z,12.04
2022-10-06T04:49:01.231Z,12.01
2022-10-06T04:51:11.217Z,11.96
2022-10-06T04:53:16.219Z,11.93
2022-10-06T04:55:21.317Z,11.91
2022-10-06T04:57:26.262Z,11.91
2022-10-06T04:59:31.332Z,11.93
2022-10-06T05:01:37.809Z,11.94
2022-10-06T05:03:47.774Z,11.95
2022-10-06T05:05:52.756Z,11.94
2022-10-06T05:07:57.970Z,11.93
2022-10-06T05:10:03.428Z,11.97
2022-10-06T05:12:09.159Z,11.97
2022-10-06T05:14:13.838Z,11.97
2022-10-06T05:16:22.665Z,11.99
2022-10-06T05:18:28.663Z,12.00
2022-10-06T05:20:33.578Z,12.05
2022-10-06T05:22:38.418Z,12.08
2022-10-06T05:24:43.321Z,12.10
2022-10-06T05:26:49.086Z,12.09
2022-10-06T05:28:54.098Z,12.09
2022-10-06T05:31:03.792Z,12.07
2022-10-06T05:33:09.885Z,12.08
2022-10-06T05:35:14.766Z,12.10
2022-10-06T05:37:19.563Z,12.08
2022-10-06T05:39:24.490Z,12.07
2022-10-06T05:41:34.711Z,12.08
2022-10-06T05:43:42.452Z,12.10
2022-10-06T05:45:56.748Z,12.09
2022-10-06T05:48:01.622Z,12.07
2022-10-06T05:50:08.671Z,12.07
2022-10-06T05:52:13.523Z,12.11
2022-10-06T05:54:18.967Z,12.15
2022-10-06T05:56:25.413Z,12.18
2022-10-06T05:58:31.514Z,12.19
2022-10-06T06:00:36.904Z,12.22
2022-10-06T06:02:41.948Z,12.27
2022-10-06T06:04:48.626Z,12.34
2022-10-06T06:06:54.344Z,12.39
2022-10-06T06:09:04.422Z,12.45
2022-10-06T06:11:09.695Z,12.49
2022-10-06T06:13:19.527Z,12.53
2022-10-06T06:15:32.107Z,12.60
2022-10-06T06:17:39.696Z,12.67
2022-10-06T06:19:44.727Z,12.72
2022-10-06T06:21:49.761Z,12.79
2022-10-06T06:23:54.994Z,12.86
2022-10-06T06:26:02.634Z,12.93
2022-10-06T06:28:08.372Z,12.98
2022-10-06T06:30:14.750Z,13.02
2022-10-06T06:32:19.596Z,13.06
2022-10-06T06:34:25.201Z,13.13
2022-10-06T06:36:31.784Z,13.22
2022-10-06T06:38:36.651Z,13.29
2022-10-06T06:40:43.187Z,13.37
2022-10-06T06:42:53.570Z,13.43
2022-10-06T06:45:32.054Z,13.50
2022-10-06T06:47:41.517Z,13.60
2022-10-06T06:49:46.377Z,13.70
2022-10-06T06:51:51.605Z,13.83
2022-10-06T06:53:58.738Z,13.94
2022-10-06T06:56:04.244Z,14.00
2022-10-06T06:58:10.537Z,14.07
2022-10-06T07:00:15.974Z,14.12
2022-10-06T07:02:20.832Z,14.17
2022-10-06T07:04:26.702Z,14.24
2022-10-06T07:06:32.147Z,14.32
2022-10-06T07:08:41.171Z,14.42
2022-10-06T07:10:46.318Z,14.55
2022-10-06T07:12:51.174Z,14.68
2022-10-06T07:14:55.806Z,14.83
2022-10-06T07:17:01.083Z,14.98
2022-10-06T07:19:07.454Z,15.12
2022-10-06T07:21:13.921Z,15.27
2022-10-06T07:23:21.062Z,15.39
2022-10-06T07:25:27.022Z,15.55
2022-10-06T07:27:44.158Z,15.69
2022-10-06T07:29:51.514Z,15.83
2022-10-06T07:31:56.785Z,15.97
2022-10-06T07:34:02.403Z,16.10
2022-10-06T07:36:07.768Z,16.26
2022-10-06T07:38:13.887Z,16.41
2022-10-06T07:40:24.798Z,16.58
2022-10-06T07:42:29.570Z,16.76
2022-10-06T07:44:34.343Z,16.92
2022-10-06T07:46:39.425Z,17.08
2022-10-06T07:48:50.569Z,17.24
2022-10-06T07:50:55.256Z,17.37
2022-10-06T07:53:04.143Z,17.51
2022-10-06T07:55:10.852Z,17.64
2022-10-06T07:57:20.423Z,17.79
2022-10-06T07:59:25.133Z,17.94
2022-10-06T08:01:30.024Z,18.08
2022-10-06T08:03:36.970Z,18.22
2022-10-06T08:05:41.757Z,18.37
2022-10-06T08:07:46.409Z,18.51
2022-10-06T08:09:51.187Z,18.62
2022-10-06T08:11:55.873Z,18.73
2022-10-06T08:14:00.927Z,18.84
2022-10-06T08:16:10.836Z,18.93
2022-10-06T08:18:33.796Z,19.03
2022-10-06T08:20:42.269Z,19.15
2022-10-06T08:22:49.347Z,19.26
2022-10-06T08:25:05.856Z,19.37
2022-10-06T08:27:11.141Z,19.49
2022-10-06T08:29:15.806Z,19.58
2022-10-06T08:31:22.545Z,19.67
2022-10-06T08:33:27.400Z,19.76
2022-10-06T08:35:32.118Z,19.85
2022-10-06T08:37:36.853Z,19.96
2022-10-06T08:39:41.794Z,20.07
2022-10-06T08:41:50.437Z,20.17
2022-10-06T08:43:59.926Z,20.27
2022-10-06T08:46:05.472Z,20.34
2022-10-06T08:48:13.630Z,20.41
2022-10-06T08:50:18.849Z,20.49
2022-10-06T08:52:48.087Z,20.56
2022-10-06T08:55:00.801Z,20.67
2022-10-06T08:57:14.419Z,20.73
2022-10-06T08:59:19.252Z,20.78
2022-10-06T09:01:26.438Z,20.83
2022-10-06T09:03:31.705Z,20.91
2022-10-06T09:05:36.622Z,20.97
2022-10-06T09:07:51.113Z,21.07
2022-10-06T09:10:08.461Z,21.15
2022-10-06T09:12:19.651Z,21.22
2022-10-06T09:14:31.968Z,21.27
2022-10-06T09:16:40.035Z,21.34
2022-10-06T09:19:07.258Z,21.39
2022-10-06T09:21:16.986Z,21.45
2022-10-06T09:23:21.685Z,21.50
2022-10-06T09:25:28.017Z,21.56
2022-10-06T09:27:34.371Z,21.61
2022-10-06T09:29:39.220Z,21.66
2022-10-06T09:31:45.930Z,21.70
2022-10-06T09:33:52.846Z,21.75
2022-10-06T09:36:11.833Z,21.80
2022-10-06T09:38:16.646Z,21.88
2022-10-06T09:40:36.468Z,21.97
2022-10-06T09:42:46.671Z,22.04
2022-10-06T09:45:03.055Z,22.08
2022-10-06T09:47:30.640Z,22.13
2022-10-06T09:49:35.407Z,22.18
2022-10-06T09:51:40.556Z,22.23
2022-10-06T09:54:03.380Z,22.29
2022-10-06T09:56:14.660Z,22.32
2022-10-06T09:58:31.766Z,22.36
2022-10-06T10:00:39.809Z,22.41
2022-10-06T10:02:45.048Z,22.45
2022-10-06T10:04:55.891Z,22.52
2022-10-06T10:07:21.562Z,22.59
2022-10-06T10:09:30.110Z,22.65
2022-10-06T10:11:34.977Z,22.69
2022-10-06T10:13:45.354Z,22.72
2022-10-06T10:15:56.312Z,22.76
2022-10-06T10:18:04.768Z,22.79
2022-10-06T10:20:25.947Z,22.82
2022-10-06T10:22:35.822Z,22.81
2022-10-06T10:24:53.642Z,22.81
2022-10-06T10:27:05.636Z,22.84
2022-10-06T10:29:36.179Z,22.90
2022-10-06T10:31:52.519Z,22.93
2022-10-06T10:34:12.630Z,22.94
2022-10-06T10:36:36.612Z,22.97
2022-10-06T10:38:44.015Z,23.01
2022-10-06T10:40:52.525Z,23.01
2022-10-06T10:43:04.727Z,23.04
2022-10-06T10:45:17.841Z,23.06
2022-10-06T10:47:27.385Z,23.09
2022-10-06T10:49:34.665Z,23.10
2022-10-06T10:51:47.377Z,23.12
2022-10-06T10:53:58.549Z,23.10
2022-10-06T10:56:06.525Z,23.07
2022-10-06T10:58:18.114Z,23.11
2022-10-06T11:00:25.805Z,23.17
2022-10-06T11:02:31.892Z,23.24
2022-10-06T11:04:40.765Z,23.23
2022-10-06T11:07:01.875Z,23.25
2022-10-06T11:09:12.070Z,23.28
2022-10-06T11:11:28.017Z,23.31
2022-10-06T11:13:39.422Z,23.29
2022-10-06T11:15:56.772Z,23.30
2022-10-06T11:18:13.220Z,23.32
2022-10-06T11:20:36.686Z,23.34
2022-10-06T11:22:47.139Z,23.36
2022-10-06T11:24:59.233Z,23.41
2022-10-06T11:27:32.002Z,23.45
2022-10-06T11:29:47.634Z,23.52
2022-10-06T11:32:03.123Z,23.59
2022-10-06T11:34:09.877Z,23.61
2022-10-06T11:36:21.032Z,23.66
2022-10-06T11:38:30.509Z,23.65
2022-10-06T11:40:56.516Z,23.70
2022-10-06T11:43:07.338Z,23.83
2022-10-06T11:45:15.724Z,23.89
2022-10-06T11:47:35.088Z,23.99
2022-10-06T11:49:54.753Z,24.08
2022-10-06T11:52:44.310Z,24.07
2022-10-06T11:54:52.821Z,24.05
2022-10-06T11:56:57.751Z,24.06
2022-10-06T11:59:12.202Z,24.05
2022-10-06T12:01:54.913Z,24.08
2022-10-06T12:04:18.513Z,24.07
2022-10-06T12:07:05.858Z,24.06
2022-10-06T12:09:45.138Z,24.04
2022-10-06T12:11:50.603Z,24.07
2022-10-06T12:17:05.986Z,24.13
2022-10-06T12:19:07.429Z,24.09
2022-10-06T12:21:20.997Z,24.04
2022-10-06T12:23:48.719Z,23.99
2022-10-06T12:25:59.273Z,24.01
2022-10-06T12:28:15.053Z,24.06
2022-10-06T12:30:24.590Z,24.12
2022-10-06T12:32:45.197Z,24.24
2022-10-06T12:35:08.978Z,24.29
2022-10-06T12:37:50.113Z,24.35
2022-10-06T12:40:28.768Z,24.48
2022-10-06T12:42:33.472Z,24.48
2022-10-06T12:44:45.272Z,24.53
2022-10-06T12:46:51.555Z,24.56
2022-10-06T12:49:03.058Z,24.51
2022-10-06T12:51:19.451Z,24.47
2022-10-06T12:53:28.897Z,24.39
2022-10-06T12:55:46.675Z,24.30
2022-10-06T12:57:52.837Z,24.24
2022-10-06T12:59:58.145Z,24.22
2022-10-06T13:02:07.772Z,24.21
2022-10-06T13:04:32.108Z,24.21
2022-10-06T13:06:37.434Z,24.25
2022-10-06T13:08:42.372Z,24.17
2022-10-06T13:10:47.121Z,24.16
2022-10-06T13:12:54.965Z,24.17
2022-10-06T13:15:16.375Z,24.25
2022-10-06T13:17:21.789Z,24.36
2022-10-06T13:19:28.567Z,24.39
2022-10-06T13:21:35.458Z,24.37
2022-10-06T13:23:41.066Z,24.39
2022-10-06T13:25:47.992Z,24.39
2022-10-06T13:27:52.942Z,24.36
2022-10-06T13:30:17.266Z,24.37
2022-10-06T13:32:25.814Z,24.34
2022-10-06T13:34:33.061Z,24.32
2022-10-06T13:36:40.301Z,24.30
2022-10-06T13:38:45.094Z,24.34
2022-10-06T13:41:16.710Z,24.40
2022-10-06T13:43:21.396Z,24.46
2022-10-06T13:45:26.832Z,24.49
2022-10-06T13:47:31.978Z,24.50
2022-10-06T13:49:44.262Z,24.46
2022-10-06T13:51:51.337Z,24.45
2022-10-06T13:53:56.590Z,24.45
2022-10-06T13:56:01.550Z,24.44
2022-10-06T13:58:17.087Z,24.45
2022-10-06T14:00:23.770Z,24.48
2022-10-06T14:02:31.680Z,24.47
2022-10-06T14:04:38.932Z,24.44
2022-10-06T14:06:52.722Z,24.45
2022-10-06T14:08:59.295Z,24.39
2022-10-06T14:11:05.919Z,24.36
2022-10-06T14:13:16.105Z,24.34
2022-10-06T14:15:24.779Z,24.32
2022-10-06T14:17:30.176Z,24.31
2022-10-06T14:19:38.173Z,24.29
2022-10-06T14:21:43.924Z,24.25
2022-10-06T14:23:51.922Z,24.27
2022-10-06T14:25:56.598Z,24.24
2022-10-06T14:28:03.255Z,24.22
2022-10-06T14:30:10.778Z,24.21
2022-10-06T14:32:17.229Z,24.20
2022-10-06T14:34:23.130Z,24.17
2022-10-06T14:36:29.274Z,24.18
2022-10-06T14:38:34.063Z,24.19
2022-10-06T14:40:41.970Z,24.17
2022-10-06T14:44:56.677Z,24.17
2022-10-06T14:47:01.874Z,24.15
2022-10-06T14:49:09.091Z,24.13
2022-10-06T14:51:13.786Z,24.14
2022-10-06T14:53:18.669Z,24.14
2022-10-06T14:55:23.626Z,24.11
2022-10-06T14:58:13.607Z,24.14
2022-10-06T15:00:18.647Z,24.07
2022-10-06T15:02:25.810Z,24.02
2022-10-06T15:04:30.704Z,23.98
2022-10-06T15:06:35.403Z,23.96
2022-10-06T15:08:40.083Z,23.96
2022-10-06T15:10:52.868Z,23.93
2022-10-06T15:12:58.034Z,23.91
2022-10-06T15:15:02.742Z,23.89
2022-10-06T15:17:07.632Z,23.89
2022-10-06T15:19:12.734Z,23.87
2022-10-06T15:21:18.022Z,23.86
2022-10-06T15:23:22.890Z,23.83
2022-10-06T15:25:27.645Z,23.78
2022-10-06T15:27:32.337Z,23.71
2022-10-06T15:29:37.297Z,23.65
2022-10-06T15:31:44.399Z,23.58
2022-10-06T15:33:53.017Z,23.50
2022-10-06T15:36:16.482Z,23.41
2022-10-06T15:38:21.369Z,23.34
2022-10-06T15:40:26.425Z,23.27
2022-10-06T15:42:31.283Z,23.24
2022-10-06T15:44:36.467Z,23.20
2022-10-06T15:46:43.681Z,23.19
2022-10-06T15:48:48.447Z,23.18
2022-10-06T15:50:53.249Z,23.16
2022-10-06T15:52:57.913Z,23.15
2022-10-06T15:55:02.644Z,23.11
2022-10-06T15:57:09.405Z,23.07
2022-10-06T15:59:14.399Z,23.04
2022-10-06T16:01:44.962Z,23.03
2022-10-06T16:03:49.846Z,23.01
2022-10-06T16:05:54.553Z,22.98
2022-10-06T16:07:59.202Z,22.95
2022-10-06T16:10:04.160Z,22.94
2022-10-06T16:12:11.052Z,22.90
2022-10-06T16:14:16.725Z,22.86
2022-10-06T16:16:21.614Z,22.84
2022-10-06T16:18:26.371Z,22.81
2022-10-06T16:20:31.107Z,22.78
2022-10-06T16:22:36.250Z,22.76
2022-10-06T16:24:41.155Z,22.73
2022-10-06T16:26:46.580Z,22.71
2022-10-06T16:28:51.975Z,22.70
2022-10-06T16:30:57.841Z,22.67
2022-10-06T16:33:02.756Z,22.64
2022-10-06T16:35:08.843Z,22.61
2022-10-06T16:37:13.496Z,22.58
2022-10-06T16:39:19.757Z,22.54
2022-10-06T16:41:24.758Z,22.51
2022-10-06T16:43:34.030Z,22.49
2022-10-06T16:45:38.682Z,22.48
2022-10-06T16:47:43.384Z,22.46
2022-10-06T16:49:48.157Z,22.45
2022-10-06T16:51:52.834Z,22.43
2022-10-06T16:53:59.327Z,22.42
2022-10-06T16:56:04.748Z,22.39
2022-10-06T16:58:12.320Z,22.37
2022-10-06T17:00:17.676Z,22.34
2022-10-06T17:02:22.338Z,22.30
2022-10-06T17:04:27.142Z,22.26
2022-10-06T17:06:33.850Z,22.22
2022-10-06T17:08:38.899Z,22.19
2022-10-06T17:10:43.527Z,22.17
2022-10-06T17:12:48.289Z,22.14
2022-10-06T17:14:53.009Z,22.12
2022-10-06T17:16:58.838Z,22.12
2022-10-06T17:19:03.966Z,22.10
2022-10-06T17:21:32.320Z,22.09
2022-10-06T17:23:35.930Z,22.08
2022-10-06T17:25:40.590Z,22.06
2022-10-06T17:27:45.210Z,22.04
2022-10-06T17:29:49.871Z,22.00
2022-10-06T17:31:54.750Z,21.96
2022-10-06T17:33:59.923Z,21.91
2022-10-06T17:36:10.618Z,21.84
2022-10-06T17:38:15.415Z,21.76
2022-10-06T17:40:20.234Z,21.71
2022-10-06T17:42:25.302Z,21.66
2022-10-06T17:44:31.098Z,21.60
2022-10-06T17:46:39.606Z,21.56
2022-10-06T17:48:46.426Z,21.51
2022-10-06T17:51:00.167Z,21.47
2022-10-06T17:53:05.378Z,21.46
2022-10-06T17:55:11.081Z,21.43
2022-10-06T17:57:16.499Z,21.40
2022-10-06T17:59:23.389Z,21.36
2022-10-06T18:01:33.025Z,21.31
2022-10-06T18:03:40.392Z,21.25
2022-10-06T18:05:54.664Z,21.19
2022-10-06T18:07:59.517Z,21.10
2022-10-06T18:10:05.814Z,20.99
2022-10-06T18:12:10.988Z,20.90
2022-10-06T18:14:18.335Z,20.83
2022-10-06T18:16:26.955Z,20.76
2022-10-06T18:18:32.475Z,20.68
2022-10-06T18:20:38.013Z,20.61
2022-10-06T18:22:43.914Z,20.54
2022-10-06T18:24:49.531Z,20.46
2022-10-06T18:26:56.102Z,20.39
2022-10-06T18:29:01.374Z,20.32
2022-10-06T18:31:07.587Z,20.22
2022-10-06T18:36:10.761Z,20.14
2022-10-06T18:38:03.305Z,19.97
2022-10-06T18:40:11.582Z,19.90
2022-10-06T18:42:17.073Z,19.83
2022-10-06T18:44:22.443Z,19.76
2022-10-06T18:46:28.366Z,19.68
2022-10-06T18:48:33.290Z,19.60
2022-10-06T18:50:38.326Z,19.53
2022-10-06T18:52:43.617Z,19.47
2022-10-06T18:54:48.821Z,19.42
2022-10-06T18:56:56.720Z,19.40
2022-10-06T18:59:06.047Z,19.38
2022-10-06T19:01:15.326Z,19.34
2022-10-06T19:03:23.326Z,19.27
2022-10-06T19:05:29.341Z,19.23
2022-10-06T19:07:36.198Z,19.14
2022-10-06T19:09:46.252Z,19.06
2022-10-06T19:11:53.838Z,19.01
2022-10-06T19:13:59.407Z,18.95
2022-10-06T19:16:07.632Z,18.91
2022-10-06T19:18:16.266Z,18.86
2022-10-06T19:20:21.392Z,18.81
2022-10-06T19:22:28.902Z,18.76
2022-10-06T19:24:37.448Z,18.72
2022-10-06T19:26:49.344Z,18.69
2022-10-06T19:28:55.198Z,18.67
2022-10-06T19:31:04.233Z,18.65
2022-10-06T19:33:10.877Z,18.64
2022-10-06T19:35:16.472Z,18.63
2022-10-06T19:37:24.974Z,18.63
2022-10-06T19:39:32.447Z,18.64
2022-10-06T19:41:39.128Z,18.63
2022-10-06T19:43:45.469Z,18.64
2022-10-06T19:46:01.872Z,18.61
2022-10-06T19:48:07.311Z,18.59
2022-10-06T19:50:13.041Z,18.57
2022-10-06T19:52:18.265Z,18.53
2022-10-06T19:54:23.604Z,18.50
2022-10-06T19:56:28.946Z,18.47
2022-10-06T19:58:34.459Z,18.44
2022-10-06T20:00:39.655Z,18.41
2022-10-06T20:02:45.150Z,18.36
2022-10-06T20:04:50.370Z,18.35
2022-10-06T20:06:55.745Z,18.31
2022-10-06T20:09:01.291Z,18.28
2022-10-06T20:11:08.553Z,18.28
2022-10-06T20:13:13.553Z,18.27
2022-10-06T20:15:19.030Z,18.25
2022-10-06T20:17:23.818Z,18.24
2022-10-06T20:19:28.554Z,18.20
2022-10-06T20:21:33.897Z,18.14
2022-10-06T20:23:38.658Z,18.07
2022-10-06T20:25:43.413Z,18.03
2022-10-06T20:27:48.146Z,17.95
2022-10-06T20:29:52.873Z,17.88
2022-10-06T20:31:58.625Z,17.84
2022-10-06T20:34:05.594Z,17.80
2022-10-06T20:36:11.318Z,17.78
2022-10-06T20:38:16.233Z,17.78
2022-10-06T20:40:23.710Z,17.79
2022-10-06T20:42:28.433Z,17.79
2022-10-06T20:44:33.344Z,17.80
2022-10-06T20:46:40.068Z,17.83
2022-10-06T20:48:44.722Z,17.86
2022-10-06T20:50:49.446Z,17.89
2022-10-06T20:52:54.238Z,17.92
2022-10-06T20:54:58.875Z,17.93
2022-10-06T20:57:05.159Z,17.93
2022-10-06T20:59:12.387Z,17.92
2022-10-06T21:01:18.649Z,17.90
2022-10-06T21:03:23.490Z,17.90
2022-10-06T21:05:28.318Z,17.90
2022-10-06T21:07:33.155Z,17.86
2022-10-06T21:09:37.950Z,17.83
2022-10-06T21:11:42.903Z,17.82
2022-10-06T21:13:48.452Z,17.82
2022-10-06T21:15:53.352Z,17.81
2022-10-06T21:17:58.428Z,17.78
2022-10-06T21:20:03.389Z,17.76
2022-10-06T21:22:08.174Z,17.74
2022-10-06T21:24:13.355Z,17.73
2022-10-06T21:26:19.962Z,17.71
2022-10-06T21:28:25.315Z,17.70
2022-10-06T21:30:31.382Z,17.66
2022-10-06T21:32:36.073Z,17.64
2022-10-06T21:34:40.865Z,17.62
2022-10-06T21:36:46.116Z,17.59
2022-10-06T21:38:53.512Z,17.58
2022-10-06T21:41:02.955Z,17.54
2022-10-06T21:43:07.775Z,17.52
2022-10-06T21:45:12.747Z,17.50
2022-10-06T21:47:17.580Z,17.48
2022-10-06T21:49:23.904Z,17.47
2022-10-06T21:51:30.141Z,17.47
2022-10-06T21:53:34.876Z,17.42
2022-10-06T21:55:39.629Z,17.39
2022-10-06T21:57:44.598Z,17.36
2022-10-06T21:59:50.059Z,17.31
2022-10-06T22:01:54.939Z,17.29
2022-10-06T22:04:00.317Z,17.27
2022-10-06T22:06:06.910Z,17.25
2022-10-06T22:08:11.629Z,17.24
2022-10-06T22:10:16.555Z,17.25
2022-10-06T22:12:21.407Z,17.24
2022-10-06T22:14:26.478Z,17.25
2022-10-06T22:16:33.892Z,17.25
2022-10-06T22:18:40.156Z,17.26
2022-10-06T22:20:45.035Z,17.27
2022-10-06T22:22:50.791Z,17.27
2022-10-06T22:24:55.529Z,17.26
2022-10-06T22:27:00.311Z,17.24
2022-10-06T22:29:06.713Z,17.20
2022-10-06T22:31:12.965Z,17.13
2022-10-06T22:33:18.357Z,17.06
2022-10-06T22:35:23.692Z,17.01
2022-10-06T22:37:29.097Z,16.98
2022-10-06T22:39:35.287Z,16.94
2022-10-06T22:41:40.701Z,16.90
2022-10-06T22:43:46.079Z,16.87
2022-10-06T22:45:51.435Z,16.85
2022-10-06T22:47:56.745Z,16.78
2022-10-06T22:50:02.168Z,16.69
2022-10-06T22:52:07.546Z,16.57
2022-10-06T22:54:19.135Z,16.50
2022-10-06T22:56:24.817Z,16.44
2022-10-06T22:58:30.528Z,16.40
2022-10-06T23:00:37.225Z,16.33
2022-10-06T23:02:42.486Z,16.30
2022-10-06T23:04:50.376Z,16.27
2022-10-06T23:06:55.628Z,16.25
2022-10-06T23:09:03.285Z,16.23
2022-10-06T23:11:10.291Z,16.26
2022-10-06T23:13:15.621Z,16.24
2022-10-06T23:15:21.439Z,16.21
2022-10-06T23:17:26.821Z,16.20
2022-10-06T23:19:32.326Z,16.21
2022-10-06T23:21:37.849Z,16.20
2022-10-06T23:23:43.349Z,16.20
2022-10-06T23:25:49.979Z,16.21
2022-10-06T23:27:55.392Z,16.21
2022-10-06T23:30:00.788Z,16.21
2022-10-06T23:32:05.686Z,16.18
2022-10-06T23:34:10.493Z,16.18
2022-10-06T23:36:15.283Z,16.18
2022-10-06T23:38:20.078Z,16.16
2022-10-06T23:40:24.875Z,16.13
2022-10-06T23:42:29.705Z,16.13
2022-10-06T23:44:34.488Z,16.16
2022-10-06T23:46:39.300Z,16.19
2022-10-06T23:48:44.292Z,16.20
2022-10-06T23:50:59.072Z,16.22
2022-10-06T23:53:03.863Z,16.24
2022-10-06T23:55:09.423Z,16.22
2022-10-06T23:57:14.231Z,16.20
2022-10-06T23:59:19.016Z,16.19
